sensor_id;sensor_type;location;lat;lon;timestamp;temperature;humidity
44170;DHT22;29836;52.286;9.576;2023-07-31T00:01:20;15.10;99.90
44170;DHT22;29836;52.286;9.576;2023-07-31T00:03:46;15.10;99.90
44170;DHT22;29836;52.286;9.576;2023-07-31T00:06:12;15.10;99.90
44170;DHT22;29836;52.286;9.576;2023-07-31T00:08:38;15.10;99.90
44170;DHT22;29836;52.286;9.576;2023-07-31T00:11:03;15.10;99.90
44170;DHT22;29836;52.286;9.576;2023-07-31T00:13:29;15.10;99.90
44170;DHT22;29836;52.286;9.576;2023-07-31T00:15:54;15.10;99.90
44170;DHT22;29836;52.286;9.576;2023-07-31T00:18:20;15.10;99.90
44170;DHT22;29836;52.286;9.576;2023-07-31T00:20:46;15.10;99.90
44170;DHT22;29836;52.286;9.576;2023-07-31T00:23:11;15.10;99.90
44170;DHT22;29836;52.286;9.576;2023-07-31T00:25:37;15.10;99.90
44170;DHT22;29836;52.286;9.576;2023-07-31T00:28:03;15.10;99.90
44170;DHT22;29836;52.286;9.576;2023-07-31T00:30:28;15.10;99.90
44170;DHT22;29836;52.286;9.576;2023-07-31T00:32:54;15.10;99.90
44170;DHT22;29836;52.286;9.576;2023-07-31T00:35:19;15.10;99.90
44170;DHT22;29836;52.286;9.576;2023-07-31T00:37:45;15.10;99.90
44170;DHT22;29836;52.286;9.576;2023-07-31T00:40:10;15.20;99.90
44170;DHT22;29836;52.286;9.576;2023-07-31T00:42:36;15.10;99.90
44170;DHT22;29836;52.286;9.576;2023-07-31T00:45:02;15.10;99.90
44170;DHT22;29836;52.286;9.576;2023-07-31T00:47:27;15.10;99.90
44170;DHT22;29836;52.286;9.576;2023-07-31T00:49:53;15.10;99.90
44170;DHT22;29836;52.286;9.576;2023-07-31T00:52:19;15.10;99.90
44170;DHT22;29836;52.286;9.576;2023-07-31T00:54:45;15.10;99.90
44170;DHT22;29836;52.286;9.576;2023-07-31T00:57:11;15.00;99.90
44170;DHT22;29836;52.286;9.576;2023-07-31T00:59:37;15.00;99.90
44170;DHT22;29836;52.286;9.576;2023-07-31T01:02:03;15.00;99.90
44170;DHT22;29836;52.286;9.576;2023-07-31T01:04:29;15.00;99.90
44170;DHT22;29836;52.286;9.576;2023-07-31T01:07:01;15.00;99.90
44170;DHT22;29836;52.286;9.576;2023-07-31T01:09:32;15.00;99.90
44170;DHT22;29836;52.286;9.576;2023-07-31T01:12:02;15.00;99.90
44170;DHT22;29836;52.286;9.576;2023-07-31T01:14:28;15.00;99.90
44170;DHT22;29836;52.286;9.576;2023-07-31T01:16:54;15.00;99.90
44170;DHT22;29836;52.286;9.576;2023-07-31T01:19:24;15.00;99.90
44170;DHT22;29836;52.286;9.576;2023-07-31T01:24:41;14.90;99.90
44170;DHT22;29836;52.286;9.576;2023-07-31T01:27:17;14.90;99.90
44170;DHT22;29836;52.286;9.576;2023-07-31T01:29:49;14.90;99.90
44170;DHT22;29836;52.286;9.576;2023-07-31T01:32:18;14.90;99.90
44170;DHT22;29836;52.286;9.576;2023-07-31T01:34:45;14.90;99.90
44170;DHT22;29836;52.286;9.576;2023-07-31T01:37:12;14.90;99.90
44170;DHT22;29836;52.286;9.576;2023-07-31T01:39:37;14.90;99.90
44170;DHT22;29836;52.286;9.576;2023-07-31T01:42:03;14.90;99.90
44170;DHT22;29836;52.286;9.576;2023-07-31T01:44:28;14.90;99.90
44170;DHT22;29836;52.286;9.576;2023-07-31T01:46:54;14.90;99.90
44170;DHT22;29836;52.286;9.576;2023-07-31T01:49:20;14.90;99.90
44170;DHT22;29836;52.286;9.576;2023-07-31T01:51:45;14.90;99.90
44170;DHT22;29836;52.286;9.576;2023-07-31T01:54:11;14.90;99.90
44170;DHT22;29836;52.286;9.576;2023-07-31T01:56:36;14.90;99.90
44170;DHT22;29836;52.286;9.576;2023-07-31T01:59:02;14.90;99.90
44170;DHT22;29836;52.286;9.576;2023-07-31T02:01:27;14.90;99.90
44170;DHT22;29836;52.286;9.576;2023-07-31T02:03:53;15.00;99.90
44170;DHT22;29836;52.286;9.576;2023-07-31T02:06:19;15.00;99.90
44170;DHT22;29836;52.286;9.576;2023-07-31T02:08:45;15.00;99.90
44170;DHT22;29836;52.286;9.576;2023-07-31T02:11:10;15.00;99.90
44170;DHT22;29836;52.286;9.576;2023-07-31T02:13:36;15.00;99.90
44170;DHT22;29836;52.286;9.576;2023-07-31T02:16:01;15.00;99.90
44170;DHT22;29836;52.286;9.576;2023-07-31T02:18:27;15.00;99.90
44170;DHT22;29836;52.286;9.576;2023-07-31T02:20:53;15.00;99.90
44170;DHT22;29836;52.286;9.576;2023-07-31T02:23:19;15.00;99.90
44170;DHT22;29836;52.286;9.576;2023-07-31T02:25:46;15.00;99.90
44170;DHT22;29836;52.286;9.576;2023-07-31T02:28:11;15.00;99.90
44170;DHT22;29836;52.286;9.576;2023-07-31T02:30:37;15.00;99.90
44170;DHT22;29836;52.286;9.576;2023-07-31T02:33:03;15.00;99.90
44170;DHT22;29836;52.286;9.576;2023-07-31T02:35:29;15.00;99.90
44170;DHT22;29836;52.286;9.576;2023-07-31T02:37:54;15.00;99.90
44170;DHT22;29836;52.286;9.576;2023-07-31T02:40:20;15.00;99.90
44170;DHT22;29836;52.286;9.576;2023-07-31T02:42:45;15.00;99.90
44170;DHT22;29836;52.286;9.576;2023-07-31T02:45:11;15.00;99.90
44170;DHT22;29836;52.286;9.576;2023-07-31T02:47:37;15.00;99.90
44170;DHT22;29836;52.286;9.576;2023-07-31T02:50:03;15.00;99.90
44170;DHT22;29836;52.286;9.576;2023-07-31T02:52:29;15.00;99.90
44170;DHT22;29836;52.286;9.576;2023-07-31T02:54:54;15.00;99.90
44170;DHT22;29836;52.286;9.576;2023-07-31T02:57:20;15.00;99.90
44170;DHT22;29836;52.286;9.576;2023-07-31T02:59:45;14.90;99.90
44170;DHT22;29836;52.286;9.576;2023-07-31T03:02:11;14.90;99.90
44170;DHT22;29836;52.286;9.576;2023-07-31T03:04:38;14.90;99.90
44170;DHT22;29836;52.286;9.576;2023-07-31T03:07:03;14.90;99.90
44170;DHT22;29836;52.286;9.576;2023-07-31T03:09:29;14.90;99.90
44170;DHT22;29836;52.286;9.576;2023-07-31T03:11:55;14.90;99.90
44170;DHT22;29836;52.286;9.576;2023-07-31T03:14:20;14.90;99.90
44170;DHT22;29836;52.286;9.576;2023-07-31T03:16:46;14.90;99.90
44170;DHT22;29836;52.286;9.576;2023-07-31T03:19:11;14.80;99.90
44170;DHT22;29836;52.286;9.576;2023-07-31T03:21:37;14.80;99.90
44170;DHT22;29836;52.286;9.576;2023-07-31T03:24:02;14.80;99.90
44170;DHT22;29836;52.286;9.576;2023-07-31T03:26:31;14.80;99.90
44170;DHT22;29836;52.286;9.576;2023-07-31T03:28:57;14.80;99.90
44170;DHT22;29836;52.286;9.576;2023-07-31T03:31:22;14.80;99.90
44170;DHT22;29836;52.286;9.576;2023-07-31T03:33:48;14.80;99.90
44170;DHT22;29836;52.286;9.576;2023-07-31T03:36:14;14.70;99.90
44170;DHT22;29836;52.286;9.576;2023-07-31T03:38:39;14.70;99.90
44170;DHT22;29836;52.286;9.576;2023-07-31T03:41:05;14.70;99.90
44170;DHT22;29836;52.286;9.576;2023-07-31T03:43:31;14.60;99.90
44170;DHT22;29836;52.286;9.576;2023-07-31T03:45:59;14.60;99.90
44170;DHT22;29836;52.286;9.576;2023-07-31T03:48:25;14.60;99.90
44170;DHT22;29836;52.286;9.576;2023-07-31T03:50:50;14.50;99.90
44170;DHT22;29836;52.286;9.576;2023-07-31T03:53:16;14.50;99.90
44170;DHT22;29836;52.286;9.576;2023-07-31T03:55:42;14.50;99.90
44170;DHT22;29836;52.286;9.576;2023-07-31T03:58:07;14.40;99.90
44170;DHT22;29836;52.286;9.576;2023-07-31T04:00:33;14.50;99.90
44170;DHT22;29836;52.286;9.576;2023-07-31T04:02:58;14.40;99.90
44170;DHT22;29836;52.286;9.576;2023-07-31T04:05:24;14.40;99.90
44170;DHT22;29836;52.286;9.576;2023-07-31T04:07:49;14.40;99.90
44170;DHT22;29836;52.286;9.576;2023-07-31T04:10:15;14.40;99.90
44170;DHT22;29836;52.286;9.576;2023-07-31T04:12:40;14.40;99.90
44170;DHT22;29836;52.286;9.576;2023-07-31T04:15:06;14.40;99.90
44170;DHT22;29836;52.286;9.576;2023-07-31T04:17:32;14.40;99.90
44170;DHT22;29836;52.286;9.576;2023-07-31T04:19:58;14.40;99.90
44170;DHT22;29836;52.286;9.576;2023-07-31T04:22:23;14.40;99.90
44170;DHT22;29836;52.286;9.576;2023-07-31T04:24:49;14.40;99.90
44170;DHT22;29836;52.286;9.576;2023-07-31T04:27:14;14.40;99.90
44170;DHT22;29836;52.286;9.576;2023-07-31T04:29:40;14.40;99.90
44170;DHT22;29836;52.286;9.576;2023-07-31T04:32:08;14.40;99.90
44170;DHT22;29836;52.286;9.576;2023-07-31T04:34:33;14.40;99.90
44170;DHT22;29836;52.286;9.576;2023-07-31T04:36:59;14.40;99.90
44170;DHT22;29836;52.286;9.576;2023-07-31T04:39:24;14.40;99.90
44170;DHT22;29836;52.286;9.576;2023-07-31T04:41:50;14.40;99.90
44170;DHT22;29836;52.286;9.576;2023-07-31T04:44:15;14.40;99.90
44170;DHT22;29836;52.286;9.576;2023-07-31T04:46:41;14.40;99.90
44170;DHT22;29836;52.286;9.576;2023-07-31T04:49:06;14.40;99.90
44170;DHT22;29836;52.286;9.576;2023-07-31T04:51:32;14.40;99.90
44170;DHT22;29836;52.286;9.576;2023-07-31T04:53:57;14.40;99.90
44170;DHT22;29836;52.286;9.576;2023-07-31T04:56:23;14.40;99.90
44170;DHT22;29836;52.286;9.576;2023-07-31T04:58:48;14.40;99.90
44170;DHT22;29836;52.286;9.576;2023-07-31T05:01:14;14.40;99.90
44170;DHT22;29836;52.286;9.576;2023-07-31T05:03:40;14.40;99.90
44170;DHT22;29836;52.286;9.576;2023-07-31T05:06:05;14.50;99.90
44170;DHT22;29836;52.286;9.576;2023-07-31T05:08:31;14.50;99.90
44170;DHT22;29836;52.286;9.576;2023-07-31T05:10:56;14.50;99.90
44170;DHT22;29836;52.286;9.576;2023-07-31T05:13:22;14.50;99.90
44170;DHT22;29836;52.286;9.576;2023-07-31T05:15:47;14.60;99.90
44170;DHT22;29836;52.286;9.576;2023-07-31T05:18:15;14.60;99.90
44170;DHT22;29836;52.286;9.576;2023-07-31T05:20:40;14.60;99.90
44170;DHT22;29836;52.286;9.576;2023-07-31T05:23:06;14.60;99.90
44170;DHT22;29836;52.286;9.576;2023-07-31T05:25:32;14.70;99.90
44170;DHT22;29836;52.286;9.576;2023-07-31T05:27:57;14.70;99.90
44170;DHT22;29836;52.286;9.576;2023-07-31T05:30:23;14.70;99.90
44170;DHT22;29836;52.286;9.576;2023-07-31T05:32:48;14.80;99.90
44170;DHT22;29836;52.286;9.576;2023-07-31T05:35:14;14.80;99.90
44170;DHT22;29836;52.286;9.576;2023-07-31T05:37:39;14.90;99.90
44170;DHT22;29836;52.286;9.576;2023-07-31T05:40:05;14.90;99.90
44170;DHT22;29836;52.286;9.576;2023-07-31T05:42:31;14.90;99.90
44170;DHT22;29836;52.286;9.576;2023-07-31T05:44:57;15.00;99.90
44170;DHT22;29836;52.286;9.576;2023-07-31T05:47:22;15.00;99.90
44170;DHT22;29836;52.286;9.576;2023-07-31T05:49:48;15.00;99.90
44170;DHT22;29836;52.286;9.576;2023-07-31T05:52:14;15.00;99.90
44170;DHT22;29836;52.286;9.576;2023-07-31T05:54:42;15.00;99.90
44170;DHT22;29836;52.286;9.576;2023-07-31T05:57:07;15.00;99.90
44170;DHT22;29836;52.286;9.576;2023-07-31T05:59:33;15.00;99.90
44170;DHT22;29836;52.286;9.576;2023-07-31T06:01:59;15.00;99.90
44170;DHT22;29836;52.286;9.576;2023-07-31T06:04:24;15.00;99.90
44170;DHT22;29836;52.286;9.576;2023-07-31T06:06:51;15.00;99.90
44170;DHT22;29836;52.286;9.576;2023-07-31T06:09:16;15.10;99.90
44170;DHT22;29836;52.286;9.576;2023-07-31T06:11:42;15.00;99.90
44170;DHT22;29836;52.286;9.576;2023-07-31T06:14:07;15.10;99.90
44170;DHT22;29836;52.286;9.576;2023-07-31T06:16:33;15.10;99.90
44170;DHT22;29836;52.286;9.576;2023-07-31T06:18:58;15.00;99.90
44170;DHT22;29836;52.286;9.576;2023-07-31T06:21:24;15.00;99.90
44170;DHT22;29836;52.286;9.576;2023-07-31T06:23:50;15.00;99.90
44170;DHT22;29836;52.286;9.576;2023-07-31T06:26:15;15.10;99.90
44170;DHT22;29836;52.286;9.576;2023-07-31T06:28:42;15.10;99.90
44170;DHT22;29836;52.286;9.576;2023-07-31T06:31:07;15.10;99.90
44170;DHT22;29836;52.286;9.576;2023-07-31T06:33:33;15.10;99.90
44170;DHT22;29836;52.286;9.576;2023-07-31T06:35:58;15.10;99.90
44170;DHT22;29836;52.286;9.576;2023-07-31T06:38:27;15.10;99.90
44170;DHT22;29836;52.286;9.576;2023-07-31T06:40:53;15.00;99.90
44170;DHT22;29836;52.286;9.576;2023-07-31T06:43:18;15.00;99.90
44170;DHT22;29836;52.286;9.576;2023-07-31T06:45:44;15.00;99.90
44170;DHT22;29836;52.286;9.576;2023-07-31T06:48:10;15.00;99.90
44170;DHT22;29836;52.286;9.576;2023-07-31T06:50:35;15.00;99.90
44170;DHT22;29836;52.286;9.576;2023-07-31T06:53:01;15.00;99.90
44170;DHT22;29836;52.286;9.576;2023-07-31T06:55:26;15.00;99.90
44170;DHT22;29836;52.286;9.576;2023-07-31T06:57:55;15.00;99.90
44170;DHT22;29836;52.286;9.576;2023-07-31T07:00:22;15.10;99.90
44170;DHT22;29836;52.286;9.576;2023-07-31T07:02:48;15.10;99.90
44170;DHT22;29836;52.286;9.576;2023-07-31T07:05:15;15.10;99.90
44170;DHT22;29836;52.286;9.576;2023-07-31T07:07:42;15.10;99.90
44170;DHT22;29836;52.286;9.576;2023-07-31T07:10:08;15.10;99.90
44170;DHT22;29836;52.286;9.576;2023-07-31T07:12:34;15.10;99.90
44170;DHT22;29836;52.286;9.576;2023-07-31T07:15:00;15.10;99.90
44170;DHT22;29836;52.286;9.576;2023-07-31T07:17:27;15.20;99.90
44170;DHT22;29836;52.286;9.576;2023-07-31T07:19:53;15.10;99.90
44170;DHT22;29836;52.286;9.576;2023-07-31T07:22:18;15.10;99.90
44170;DHT22;29836;52.286;9.576;2023-07-31T07:24:44;15.10;99.90
44170;DHT22;29836;52.286;9.576;2023-07-31T07:27:10;15.20;99.90
44170;DHT22;29836;52.286;9.576;2023-07-31T07:29:38;15.20;99.90
44170;DHT22;29836;52.286;9.576;2023-07-31T07:32:04;15.30;99.90
44170;DHT22;29836;52.286;9.576;2023-07-31T07:34:30;15.20;99.90
44170;DHT22;29836;52.286;9.576;2023-07-31T07:36:55;15.30;99.90
44170;DHT22;29836;52.286;9.576;2023-07-31T07:39:21;15.30;99.90
44170;DHT22;29836;52.286;9.576;2023-07-31T07:41:47;15.30;99.90
44170;DHT22;29836;52.286;9.576;2023-07-31T07:44:13;15.30;99.90
44170;DHT22;29836;52.286;9.576;2023-07-31T07:46:39;15.30;99.90
44170;DHT22;29836;52.286;9.576;2023-07-31T07:49:04;15.30;99.90
44170;DHT22;29836;52.286;9.576;2023-07-31T07:51:30;15.40;99.90
44170;DHT22;29836;52.286;9.576;2023-07-31T07:53:57;15.40;99.90
44170;DHT22;29836;52.286;9.576;2023-07-31T07:56:23;15.50;99.90
44170;DHT22;29836;52.286;9.576;2023-07-31T07:58:49;15.50;99.90
44170;DHT22;29836;52.286;9.576;2023-07-31T08:01:15;15.50;99.90
44170;DHT22;29836;52.286;9.576;2023-07-31T08:03:41;15.50;99.90
44170;DHT22;29836;52.286;9.576;2023-07-31T08:06:07;15.50;99.90
44170;DHT22;29836;52.286;9.576;2023-07-31T08:08:37;15.60;99.90
44170;DHT22;29836;52.286;9.576;2023-07-31T08:11:03;15.70;99.90
44170;DHT22;29836;52.286;9.576;2023-07-31T08:13:29;15.70;99.90
44170;DHT22;29836;52.286;9.576;2023-07-31T08:15:54;15.70;99.90
44170;DHT22;29836;52.286;9.576;2023-07-31T08:18:20;15.80;99.90
44170;DHT22;29836;52.286;9.576;2023-07-31T08:20:46;15.80;99.90
44170;DHT22;29836;52.286;9.576;2023-07-31T08:23:11;15.80;99.90
44170;DHT22;29836;52.286;9.576;2023-07-31T08:25:37;15.90;99.90
44170;DHT22;29836;52.286;9.576;2023-07-31T08:28:04;15.80;99.90
44170;DHT22;29836;52.286;9.576;2023-07-31T08:30:29;15.80;99.90
44170;DHT22;29836;52.286;9.576;2023-07-31T08:32:55;15.90;99.90
44170;DHT22;29836;52.286;9.576;2023-07-31T08:35:21;15.90;99.90
44170;DHT22;29836;52.286;9.576;2023-07-31T08:37:46;15.90;99.90
44170;DHT22;29836;52.286;9.576;2023-07-31T08:40:12;15.90;99.90
44170;DHT22;29836;52.286;9.576;2023-07-31T08:42:46;15.90;99.90
44170;DHT22;29836;52.286;9.576;2023-07-31T08:45:17;15.90;99.90
44170;DHT22;29836;52.286;9.576;2023-07-31T08:47:49;15.90;99.90
44170;DHT22;29836;52.286;9.576;2023-07-31T08:50:17;15.90;99.90
44170;DHT22;29836;52.286;9.576;2023-07-31T08:52:43;15.90;99.90
44170;DHT22;29836;52.286;9.576;2023-07-31T08:55:09;15.90;99.90
44170;DHT22;29836;52.286;9.576;2023-07-31T08:57:37;15.90;99.90
44170;DHT22;29836;52.286;9.576;2023-07-31T09:00:04;16.00;99.90
44170;DHT22;29836;52.286;9.576;2023-07-31T09:03:08;16.00;99.90
44170;DHT22;29836;52.286;9.576;2023-07-31T09:05:35;16.20;99.90
44170;DHT22;29836;52.286;9.576;2023-07-31T09:08:02;16.20;99.90
44170;DHT22;29836;52.286;9.576;2023-07-31T09:10:29;16.30;99.90
44170;DHT22;29836;52.286;9.576;2023-07-31T09:12:55;16.20;99.90
44170;DHT22;29836;52.286;9.576;2023-07-31T09:15:21;16.20;99.90
44170;DHT22;29836;52.286;9.576;2023-07-31T09:17:59;16.30;99.90
44170;DHT22;29836;52.286;9.576;2023-07-31T09:20:24;16.30;99.90
44170;DHT22;29836;52.286;9.576;2023-07-31T09:22:50;16.20;99.90
44170;DHT22;29836;52.286;9.576;2023-07-31T09:25:23;16.20;99.90
44170;DHT22;29836;52.286;9.576;2023-07-31T09:27:57;16.20;99.90
44170;DHT22;29836;52.286;9.576;2023-07-31T09:30:23;16.20;99.90
44170;DHT22;29836;52.286;9.576;2023-07-31T09:32:50;16.30;99.90
44170;DHT22;29836;52.286;9.576;2023-07-31T09:35:27;16.40;99.90
44170;DHT22;29836;52.286;9.576;2023-07-31T09:37:58;16.40;99.90
44170;DHT22;29836;52.286;9.576;2023-07-31T09:40:28;16.40;99.90
44170;DHT22;29836;52.286;9.576;2023-07-31T09:43:00;16.40;99.90
44170;DHT22;29836;52.286;9.576;2023-07-31T09:45:26;16.30;99.90
44170;DHT22;29836;52.286;9.576;2023-07-31T09:47:52;16.30;99.90
44170;DHT22;29836;52.286;9.576;2023-07-31T09:50:19;16.20;99.90
44170;DHT22;29836;52.286;9.576;2023-07-31T09:52:45;16.30;99.90
44170;DHT22;29836;52.286;9.576;2023-07-31T09:55:11;16.30;99.90
44170;DHT22;29836;52.286;9.576;2023-07-31T09:57:47;16.40;99.90
44170;DHT22;29836;52.286;9.576;2023-07-31T10:00:14;16.50;99.90
44170;DHT22;29836;52.286;9.576;2023-07-31T10:02:41;16.50;99.90
44170;DHT22;29836;52.286;9.576;2023-07-31T10:05:07;16.60;99.90
44170;DHT22;29836;52.286;9.576;2023-07-31T10:07:38;16.60;99.90
44170;DHT22;29836;52.286;9.576;2023-07-31T10:10:07;16.60;99.90
44170;DHT22;29836;52.286;9.576;2023-07-31T10:12:33;16.60;99.90
44170;DHT22;29836;52.286;9.576;2023-07-31T10:15:00;16.70;99.90
44170;DHT22;29836;52.286;9.576;2023-07-31T10:17:26;16.80;99.90
44170;DHT22;29836;52.286;9.576;2023-07-31T10:19:53;16.80;99.90
44170;DHT22;29836;52.286;9.576;2023-07-31T10:22:20;16.80;99.90
44170;DHT22;29836;52.286;9.576;2023-07-31T10:24:46;16.80;99.90
44170;DHT22;29836;52.286;9.576;2023-07-31T10:27:13;16.80;99.90
44170;DHT22;29836;52.286;9.576;2023-07-31T10:29:40;16.90;99.90
44170;DHT22;29836;52.286;9.576;2023-07-31T10:32:11;17.00;99.90
44170;DHT22;29836;52.286;9.576;2023-07-31T10:34:39;17.10;99.90
44170;DHT22;29836;52.286;9.576;2023-07-31T10:37:30;17.30;99.90
44170;DHT22;29836;52.286;9.576;2023-07-31T10:42:34;17.40;99.90
44170;DHT22;29836;52.286;9.576;2023-07-31T10:45:06;17.50;99.90
44170;DHT22;29836;52.286;9.576;2023-07-31T10:48:01;17.40;99.90
44170;DHT22;29836;52.286;9.576;2023-07-31T10:50:28;17.40;99.90
44170;DHT22;29836;52.286;9.576;2023-07-31T10:52:55;17.40;99.90
44170;DHT22;29836;52.286;9.576;2023-07-31T10:55:28;17.50;99.90
44170;DHT22;29836;52.286;9.576;2023-07-31T10:57:56;17.60;99.90
44170;DHT22;29836;52.286;9.576;2023-07-31T11:06:03;17.80;99.90
44170;DHT22;29836;52.286;9.576;2023-07-31T11:08:33;17.70;99.90
44170;DHT22;29836;52.286;9.576;2023-07-31T11:13:31;17.80;99.90
44170;DHT22;29836;52.286;9.576;2023-07-31T11:15:57;17.80;99.90
44170;DHT22;29836;52.286;9.576;2023-07-31T11:18:23;17.80;99.90
44170;DHT22;29836;52.286;9.576;2023-07-31T11:20:49;17.80;99.90
44170;DHT22;29836;52.286;9.576;2023-07-31T11:23:17;17.80;99.90
44170;DHT22;29836;52.286;9.576;2023-07-31T11:25:42;17.80;99.90
44170;DHT22;29836;52.286;9.576;2023-07-31T11:28:13;17.80;99.90
44170;DHT22;29836;52.286;9.576;2023-07-31T11:30:40;17.90;99.90
44170;DHT22;29836;52.286;9.576;2023-07-31T11:33:10;18.00;99.90
44170;DHT22;29836;52.286;9.576;2023-07-31T11:35:47;18.10;99.90
44170;DHT22;29836;52.286;9.576;2023-07-31T11:38:30;18.10;99.90
44170;DHT22;29836;52.286;9.576;2023-07-31T11:40:59;18.20;99.90
44170;DHT22;29836;52.286;9.576;2023-07-31T11:43:25;18.10;99.90
44170;DHT22;29836;52.286;9.576;2023-07-31T11:45:53;18.30;99.90
44170;DHT22;29836;52.286;9.576;2023-07-31T11:48:23;18.60;99.90
44170;DHT22;29836;52.286;9.576;2023-07-31T11:50:51;18.90;99.90
44170;DHT22;29836;52.286;9.576;2023-07-31T11:53:24;18.80;99.90
44170;DHT22;29836;52.286;9.576;2023-07-31T11:55:51;18.80;99.90
44170;DHT22;29836;52.286;9.576;2023-07-31T11:58:17;18.80;99.90
44170;DHT22;29836;52.286;9.576;2023-07-31T12:00:43;18.70;99.90
44170;DHT22;29836;52.286;9.576;2023-07-31T12:03:10;18.50;99.90
44170;DHT22;29836;52.286;9.576;2023-07-31T12:05:37;18.30;99.90
44170;DHT22;29836;52.286;9.576;2023-07-31T12:08:09;18.20;99.90
44170;DHT22;29836;52.286;9.576;2023-07-31T12:10:36;18.10;99.90
44170;DHT22;29836;52.286;9.576;2023-07-31T12:13:12;18.00;99.90
44170;DHT22;29836;52.286;9.576;2023-07-31T12:15:45;17.90;99.90
44170;DHT22;29836;52.286;9.576;2023-07-31T12:18:17;17.80;99.90
44170;DHT22;29836;52.286;9.576;2023-07-31T12:20:45;17.90;99.90
44170;DHT22;29836;52.286;9.576;2023-07-31T12:23:22;17.80;99.90
44170;DHT22;29836;52.286;9.576;2023-07-31T12:28:40;17.80;99.90
44170;DHT22;29836;52.286;9.576;2023-07-31T12:31:09;17.80;99.90
44170;DHT22;29836;52.286;9.576;2023-07-31T12:33:37;17.90;99.90
44170;DHT22;29836;52.286;9.576;2023-07-31T12:36:09;18.00;99.90
44170;DHT22;29836;52.286;9.576;2023-07-31T12:38:35;18.20;99.90
44170;DHT22;29836;52.286;9.576;2023-07-31T12:41:00;18.30;99.90
44170;DHT22;29836;52.286;9.576;2023-07-31T12:43:26;18.50;99.90
44170;DHT22;29836;52.286;9.576;2023-07-31T12:45:54;18.60;99.90
44170;DHT22;29836;52.286;9.576;2023-07-31T12:48:19;18.50;99.90
44170;DHT22;29836;52.286;9.576;2023-07-31T12:50:45;18.50;99.90
44170;DHT22;29836;52.286;9.576;2023-07-31T12:53:10;18.60;99.90
44170;DHT22;29836;52.286;9.576;2023-07-31T12:55:36;18.70;99.90
44170;DHT22;29836;52.286;9.576;2023-07-31T12:58:02;18.60;99.90
44170;DHT22;29836;52.286;9.576;2023-07-31T13:00:28;18.60;99.90
44170;DHT22;29836;52.286;9.576;2023-07-31T13:02:54;18.50;99.90
44170;DHT22;29836;52.286;9.576;2023-07-31T13:05:20;18.50;99.90
44170;DHT22;29836;52.286;9.576;2023-07-31T13:07:46;18.50;99.90
44170;DHT22;29836;52.286;9.576;2023-07-31T13:10:12;18.50;99.90
44170;DHT22;29836;52.286;9.576;2023-07-31T13:12:37;18.70;99.90
44170;DHT22;29836;52.286;9.576;2023-07-31T13:15:06;18.90;99.90
44170;DHT22;29836;52.286;9.576;2023-07-31T13:17:32;19.10;99.90
44170;DHT22;29836;52.286;9.576;2023-07-31T13:19:58;19.30;99.90
44170;DHT22;29836;52.286;9.576;2023-07-31T13:22:23;19.40;99.90
44170;DHT22;29836;52.286;9.576;2023-07-31T13:24:49;19.80;99.90
44170;DHT22;29836;52.286;9.576;2023-07-31T13:27:15;19.60;99.90
44170;DHT22;29836;52.286;9.576;2023-07-31T13:29:44;19.70;99.90
44170;DHT22;29836;52.286;9.576;2023-07-31T13:32:09;19.60;99.90
44170;DHT22;29836;52.286;9.576;2023-07-31T13:34:35;19.80;99.90
44170;DHT22;29836;52.286;9.576;2023-07-31T13:37:01;19.80;99.90
44170;DHT22;29836;52.286;9.576;2023-07-31T13:39:26;19.80;99.90
44170;DHT22;29836;52.286;9.576;2023-07-31T13:41:52;19.80;99.90
44170;DHT22;29836;52.286;9.576;2023-07-31T13:44:17;19.90;99.90
44170;DHT22;29836;52.286;9.576;2023-07-31T13:46:43;19.70;99.90
44170;DHT22;29836;52.286;9.576;2023-07-31T13:49:08;19.70;99.90
44170;DHT22;29836;52.286;9.576;2023-07-31T13:51:34;19.60;99.90
44170;DHT22;29836;52.286;9.576;2023-07-31T13:53:59;19.50;99.90
44170;DHT22;29836;52.286;9.576;2023-07-31T13:56:25;19.50;99.90
44170;DHT22;29836;52.286;9.576;2023-07-31T13:58:50;19.60;99.90
44170;DHT22;29836;52.286;9.576;2023-07-31T14:01:16;19.40;99.90
44170;DHT22;29836;52.286;9.576;2023-07-31T14:03:41;19.40;99.90
44170;DHT22;29836;52.286;9.576;2023-07-31T14:06:07;19.20;99.90
44170;DHT22;29836;52.286;9.576;2023-07-31T14:08:33;19.20;99.90
44170;DHT22;29836;52.286;9.576;2023-07-31T14:10:58;19.20;99.90
44170;DHT22;29836;52.286;9.576;2023-07-31T14:13:24;19.00;99.90
44170;DHT22;29836;52.286;9.576;2023-07-31T14:15:49;19.00;99.90
44170;DHT22;29836;52.286;9.576;2023-07-31T14:18:15;19.10;99.90
44170;DHT22;29836;52.286;9.576;2023-07-31T14:20:40;19.10;99.90
44170;DHT22;29836;52.286;9.576;2023-07-31T14:23:06;19.10;99.90
44170;DHT22;29836;52.286;9.576;2023-07-31T14:25:31;19.20;99.90
44170;DHT22;29836;52.286;9.576;2023-07-31T14:27:57;19.30;99.90
44170;DHT22;29836;52.286;9.576;2023-07-31T14:30:22;19.40;99.90
44170;DHT22;29836;52.286;9.576;2023-07-31T14:32:48;19.40;99.90
44170;DHT22;29836;52.286;9.576;2023-07-31T14:35:14;19.20;99.90
44170;DHT22;29836;52.286;9.576;2023-07-31T14:37:41;19.10;99.90
44170;DHT22;29836;52.286;9.576;2023-07-31T14:40:11;18.90;99.90
44170;DHT22;29836;52.286;9.576;2023-07-31T14:42:37;18.90;99.90
44170;DHT22;29836;52.286;9.576;2023-07-31T14:45:04;18.90;99.90
44170;DHT22;29836;52.286;9.576;2023-07-31T14:47:30;18.90;99.90
44170;DHT22;29836;52.286;9.576;2023-07-31T14:49:59;19.00;99.90
44170;DHT22;29836;52.286;9.576;2023-07-31T14:52:25;19.30;99.90
44170;DHT22;29836;52.286;9.576;2023-07-31T14:54:51;19.30;99.90
44170;DHT22;29836;52.286;9.576;2023-07-31T14:57:17;19.40;99.90
44170;DHT22;29836;52.286;9.576;2023-07-31T14:59:42;19.50;99.90
44170;DHT22;29836;52.286;9.576;2023-07-31T15:02:11;19.60;99.90
44170;DHT22;29836;52.286;9.576;2023-07-31T15:04:37;19.80;99.90
44170;DHT22;29836;52.286;9.576;2023-07-31T15:07:03;20.00;99.90
44170;DHT22;29836;52.286;9.576;2023-07-31T15:09:29;20.20;99.90
44170;DHT22;29836;52.286;9.576;2023-07-31T15:11:56;20.30;99.90
44170;DHT22;29836;52.286;9.576;2023-07-31T15:14:22;20.40;99.90
44170;DHT22;29836;52.286;9.576;2023-07-31T15:16:48;20.60;99.90
44170;DHT22;29836;52.286;9.576;2023-07-31T15:19:14;20.50;99.90
44170;DHT22;29836;52.286;9.576;2023-07-31T15:21:40;20.40;99.90
44170;DHT22;29836;52.286;9.576;2023-07-31T15:24:05;20.30;99.90
44170;DHT22;29836;52.286;9.576;2023-07-31T15:26:31;20.20;99.90
44170;DHT22;29836;52.286;9.576;2023-07-31T15:29:04;20.00;99.90
44170;DHT22;29836;52.286;9.576;2023-07-31T15:31:34;19.70;99.90
44170;DHT22;29836;52.286;9.576;2023-07-31T15:33:59;19.30;99.90
44170;DHT22;29836;52.286;9.576;2023-07-31T15:36:25;19.20;99.90
44170;DHT22;29836;52.286;9.576;2023-07-31T15:38:51;19.00;99.90
44170;DHT22;29836;52.286;9.576;2023-07-31T15:41:17;18.90;99.90
44170;DHT22;29836;52.286;9.576;2023-07-31T15:43:43;18.90;99.90